Time,TemperatureF,DewpointF,PressureIn,WindDirection,WindDirectionDegrees,WindSpeedMPH,WindSpeedGustMPH,Humidity,HourlyPrecipIn,Conditions,Clouds,dailyrainin,SoftwareType,DateUTC
2013-05-25 00:01:00,53.7,48.3,30.23,WSW,252,0.0,1.0,82,0.00,,,0.00,Wunderground v.1.15,2013-05-25 04:01:00,
2013-05-25 00:03:00,53.5,48.5,30.23,WSW,252,0.0,1.0,83,0.00,,,0.00,Wunderground v.1.15,2013-05-25 04:03:00,
2013-05-25 00:04:00,53.4,48.4,30.23,WSW,250,0.0,1.0,83,0.00,,,0.00,Wunderground v.1.15,2013-05-25 04:04:00,
2013-05-25 00:05:00,53.4,48.4,30.23,WSW,250,0.0,1.0,83,0.00,,,0.00,Wunderground v.1.15,2013-05-25 04:05:00,
2013-05-25 00:07:00,53.3,48.6,30.23,WSW,252,0.0,0.0,84,0.00,,,0.00,Wunderground v.1.15,2013-05-25 04:07:00,
2013-05-25 00:12:00,52.9,48.2,30.24,WSW,239,1.0,1.0,84,0.00,,,0.00,Wunderground v.1.15,2013-05-25 04:12:00,
2013-05-25 00:17:00,52.6,48.5,30.24,WSW,239,0.0,1.0,86,0.00,,,0.00,Wunderground v.1.15,2013-05-25 04:17:00,
2013-05-25 00:23:00,52.5,48.4,30.24,WSW,239,0.0,1.0,86,0.00,,,0.00,Wunderground v.1.15,2013-05-25 04:23:00,
2013-05-25 00:28:00,52.3,48.2,30.24,WSW,239,0.0,0.0,86,0.00,,,0.00,Wunderground v.1.15,2013-05-25 04:28:00,
2013-05-25 00:33:00,52.0,47.9,30.24,WSW,239,0.0,0.0,86,0.00,,,0.00,Wunderground v.1.15,2013-05-25 04:33:00,
2013-05-25 00:38:00,52.2,49.1,30.24,NNE,27,1.0,2.0,89,0.00,,,0.00,Wunderground v.1.15,2013-05-25 04:38:00,
2013-05-25 00:43:00,52.4,48.9,30.24,NNE,27,0.0,2.0,88,0.00,,,0.00,Wunderground v.1.15,2013-05-25 04:43:00,
2013-05-25 00:48:00,52.4,48.9,30.24,WSW,256,1.0,1.0,88,0.00,,,0.00,Wunderground v.1.15,2013-05-25 04:48:00,
2013-05-25 00:53:00,51.8,48.1,30.24,WSW,256,0.0,1.0,87,0.00,,,0.00,Wunderground v.1.15,2013-05-25 04:53:00,
2013-05-25 00:58:00,51.2,48.1,30.24,WSW,256,0.0,0.0,89,0.00,,,0.00,Wunderground v.1.15,2013-05-25 04:58:00,
2013-05-25 01:04:00,50.8,47.7,30.24,WSW,256,0.0,0.0,89,0.00,,,0.00,Wunderground v.1.15,2013-05-25 05:04:00,
2013-05-25 01:09:00,50.3,47.2,30.25,WSW,256,0.0,0.0,89,0.00,,,0.00,Wunderground v.1.15,2013-05-25 05:09:00,
2013-05-25 01:15:00,49.9,47.1,30.25,WSW,256,0.0,0.0,90,0.00,,,0.00,Wunderground v.1.15,2013-05-25 05:15:00,
2013-05-25 01:20:00,49.7,47.2,30.25,SW,217,1.0,1.0,91,0.00,,,0.00,Wunderground v.1.15,2013-05-25 05:20:00,
2013-05-25 01:25:00,49.6,47.4,30.25,SW,226,1.0,1.0,92,0.00,,,0.00,Wunderground v.1.15,2013-05-25 05:25:00,
2013-05-25 01:30:00,49.6,47.7,30.26,SW,226,0.0,1.0,93,0.00,,,0.00,Wunderground v.1.15,2013-05-25 05:30:00,
2013-05-25 01:35:00,49.6,47.7,30.26,SW,226,0.0,1.0,93,0.00,,,0.00,Wunderground v.1.15,2013-05-25 05:35:00,
2013-05-25 01:40:00,49.6,47.7,30.26,WSW,242,1.0,1.0,93,0.00,,,0.00,Wunderground v.1.15,2013-05-25 05:40:00,
2013-05-25 01:45:00,49.6,47.7,30.26,SW,225,2.0,2.0,93,0.00,,,0.00,Wunderground v.1.15,2013-05-25 05:45:00,
2013-05-25 01:50:00,49.6,47.7,30.26,SW,233,0.0,1.0,93,0.00,,,0.00,Wunderground v.1.15,2013-05-25 05:50:00,
2013-05-25 01:55:00,49.5,47.3,30.26,SW,233,0.0,1.0,92,0.00,,,0.00,Wunderground v.1.15,2013-05-25 05:55:00,
2013-05-25 02:01:00,49.2,46.7,30.26,SW,233,0.0,0.0,91,0.00,,,0.00,Wunderground v.1.15,2013-05-25 06:01:00,
2013-05-25 02:06:00,48.9,46.7,30.26,SW,233,0.0,0.0,92,0.00,,,0.00,Wunderground v.1.15,2013-05-25 06:06:00,
2013-05-25 02:11:00,48.8,46.6,30.26,SW,233,0.0,1.0,92,0.00,,,0.00,Wunderground v.1.15,2013-05-25 06:11:00,
2013-05-25 02:16:00,48.7,46.8,30.26,SW,233,0.0,1.0,93,0.00,,,0.00,Wunderground v.1.15,2013-05-25 06:16:00,
2013-05-25 02:21:00,48.6,46.7,30.26,SW,233,0.0,0.0,93,0.00,,,0.00,Wunderground v.1.15,2013-05-25 06:21:00,
2013-05-25 02:26:00,48.4,46.5,30.26,SW,233,0.0,1.0,93,0.00,,,0.00,Wunderground v.1.15,2013-05-25 06:26:00,
2013-05-25 02:31:00,48.1,46.2,30.26,SW,233,0.0,0.0,93,0.00,,,0.00,Wunderground v.1.15,2013-05-25 06:31:00,
2013-05-25 02:36:00,47.7,46.1,30.26,SW,233,0.0,0.0,94,0.00,,,0.00,Wunderground v.1.15,2013-05-25 06:36:00,
2013-05-25 02:41:00,47.9,46.5,30.26,SW,233,0.0,0.0,95,0.00,,,0.00,Wunderground v.1.15,2013-05-25 06:41:00,
2013-05-25 02:46:00,47.9,46.5,30.26,SW,233,0.0,0.0,95,0.00,,,0.00,Wunderground v.1.15,2013-05-25 06:46:00,
2013-05-25 02:51:00,47.7,46.3,30.26,SW,233,0.0,0.0,95,0.00,,,0.00,Wunderground v.1.15,2013-05-25 06:51:00,
2013-05-25 02:56:00,47.7,46.3,30.26,SW,233,0.0,0.0,95,0.00,,,0.00,Wunderground v.1.15,2013-05-25 06:56:00,
2013-05-25 03:01:00,47.8,46.4,30.26,SW,233,0.0,0.0,95,0.00,,,0.00,Wunderground v.1.15,2013-05-25 07:01:00,
2013-05-25 03:06:00,47.7,46.3,30.26,SW,233,0.0,0.0,95,0.00,,,0.00,Wunderground v.1.15,2013-05-25 07:06:00,
2013-05-25 03:11:00,48.0,46.9,30.26,SW,233,0.0,0.0,96,0.00,,,0.00,Wunderground v.1.15,2013-05-25 07:11:00,
2013-05-25 03:16:00,48.0,46.9,30.26,SW,233,0.0,0.0,96,0.00,,,0.00,Wunderground v.1.15,2013-05-25 07:16:00,
2013-05-25 03:21:00,48.1,47.0,30.26,SW,233,0.0,0.0,96,0.00,,,0.00,Wunderground v.1.15,2013-05-25 07:21:00,
2013-05-25 03:26:00,47.8,46.7,30.26,SW,233,0.0,0.0,96,0.00,,,0.00,Wunderground v.1.15,2013-05-25 07:26:00,
2013-05-25 03:31:00,47.5,46.4,30.26,SW,233,0.0,0.0,96,0.00,,,0.00,Wunderground v.1.15,2013-05-25 07:31:00,
2013-05-25 03:36:00,47.4,46.3,30.26,SW,233,0.0,0.0,96,0.00,,,0.00,Wunderground v.1.15,2013-05-25 07:36:00,
2013-05-25 03:41:00,47.1,46.0,30.26,SW,233,0.0,0.0,96,0.00,,,0.00,Wunderground v.1.15,2013-05-25 07:41:00,
2013-05-25 03:46:00,46.8,45.7,30.26,SW,233,0.0,0.0,96,0.00,,,0.00,Wunderground v.1.15,2013-05-25 07:46:00,
2013-05-25 03:51:00,46.7,45.9,30.26,SW,233,0.0,0.0,97,0.00,,,0.00,Wunderground v.1.15,2013-05-25 07:51:00,
2013-05-25 03:56:00,46.8,46.0,30.26,SW,233,0.0,1.0,97,0.00,,,0.00,Wunderground v.1.15,2013-05-25 07:56:00,
2013-05-25 04:01:00,46.6,45.8,30.26,SW,233,0.0,0.0,97,0.00,,,0.00,Wunderground v.1.15,2013-05-25 08:01:00,
2013-05-25 04:06:00,46.4,45.6,30.25,SW,233,0.0,0.0,97,0.00,,,0.00,Wunderground v.1.15,2013-05-25 08:06:00,
2013-05-25 04:11:00,46.5,45.7,30.25,SW,233,0.0,0.0,97,0.00,,,0.00,Wunderground v.1.15,2013-05-25 08:11:00,
2013-05-25 04:16:00,46.5,45.7,30.25,WSW,239,0.0,1.0,97,0.00,,,0.00,Wunderground v.1.15,2013-05-25 08:16:00,
2013-05-25 04:21:00,46.4,45.6,30.26,WSW,239,0.0,1.0,97,0.00,,,0.00,Wunderground v.1.15,2013-05-25 08:21:00,
2013-05-25 04:26:00,46.5,45.7,30.26,WSW,239,0.0,1.0,97,0.00,,,0.00,Wunderground v.1.15,2013-05-25 08:26:00,
2013-05-25 04:31:00,46.4,45.6,30.26,WSW,239,0.0,0.0,97,0.00,,,0.00,Wunderground v.1.15,2013-05-25 08:31:00,
2013-05-25 04:36:00,47.1,46.6,30.25,East,93,2.0,3.0,98,0.00,,,0.00,Wunderground v.1.15,2013-05-25 08:36:00,
2013-05-25 04:41:00,48.1,47.6,30.25,NE,44,3.0,3.0,98,0.00,,,0.00,Wunderground v.1.15,2013-05-25 08:41:00,
2013-05-25 04:46:00,48.6,48.1,30.25,NE,45,1.0,3.0,98,0.00,,,0.00,Wunderground v.1.15,2013-05-25 08:46:00,
2013-05-25 04:51:00,49.0,48.2,30.25,ENE,75,1.0,3.0,97,0.00,,,0.00,Wunderground v.1.15,2013-05-25 08:51:00,
2013-05-25 04:56:00,49.3,48.2,30.26,East,93,0.0,3.0,96,0.00,,,0.00,Wunderground v.1.15,2013-05-25 08:56:00,
2013-05-25 05:01:00,49.2,48.1,30.26,East,87,1.0,3.0,96,0.00,,,0.00,Wunderground v.1.15,2013-05-25 09:01:00,
2013-05-25 05:06:00,49.2,47.8,30.26,ENE,66,2.0,3.0,95,0.00,,,0.00,Wunderground v.1.15,2013-05-25 09:06:00,
2013-05-25 05:11:00,49.4,48.0,30.26,NE,53,2.0,4.0,95,0.00,,,0.00,Wunderground v.1.15,2013-05-25 09:11:00,
2013-05-25 05:16:00,49.3,47.9,30.26,NE,49,1.0,4.0,95,0.00,,,0.00,Wunderground v.1.15,2013-05-25 09:16:00,
2013-05-25 05:21:00,49.4,47.7,30.26,NE,53,0.0,3.0,94,0.00,,,0.00,Wunderground v.1.15,2013-05-25 09:21:00,
2013-05-25 05:26:00,49.1,47.2,30.27,NW,312,0.0,3.0,93,0.00,,,0.00,Wunderground v.1.15,2013-05-25 09:26:00,
2013-05-25 05:31:00,48.4,46.5,30.27,West,277,0.0,1.0,93,0.00,,,0.00,Wunderground v.1.15,2013-05-25 09:31:00,
2013-05-25 05:36:00,47.9,46.0,30.27,West,270,0.0,1.0,93,0.00,,,0.00,Wunderground v.1.15,2013-05-25 09:36:00,
2013-05-25 05:41:00,47.5,45.9,30.28,West,270,0.0,1.0,94,0.00,,,0.00,Wunderground v.1.15,2013-05-25 09:41:00,
2013-05-25 05:46:00,47.2,45.6,30.28,West,269,0.0,1.0,94,0.00,,,0.00,Wunderground v.1.15,2013-05-25 09:46:00,
2013-05-25 05:51:00,46.9,45.3,30.28,West,270,0.0,0.0,94,0.00,,,0.00,Wunderground v.1.15,2013-05-25 09:51:00,
2013-05-25 05:56:00,46.7,45.3,30.28,West,269,0.0,0.0,95,0.00,,,0.00,Wunderground v.1.15,2013-05-25 09:56:00,
2013-05-25 06:01:00,46.6,45.5,30.28,West,269,0.0,0.0,96,0.00,,,0.00,Wunderground v.1.15,2013-05-25 10:01:00,
2013-05-25 06:06:00,46.4,45.0,30.29,West,270,0.0,1.0,95,0.00,,,0.00,Wunderground v.1.15,2013-05-25 10:06:00,
2013-05-25 06:11:00,46.2,44.8,30.28,WSW,248,1.0,2.0,95,0.00,,,0.00,Wunderground v.1.15,2013-05-25 10:11:00,
2013-05-25 06:16:00,46.1,45.0,30.28,SW,225,0.0,2.0,96,0.00,,,0.00,Wunderground v.1.15,2013-05-25 10:16:00,
2013-05-25 06:21:00,46.0,44.9,30.29,SW,225,0.0,1.0,96,0.00,,,0.00,Wunderground v.1.15,2013-05-25 10:21:00,
2013-05-25 06:26:00,46.1,45.0,30.29,SW,225,0.0,1.0,96,0.00,,,0.00,Wunderground v.1.15,2013-05-25 10:26:00,
2013-05-25 06:31:00,46.4,45.6,30.29,ENE,72,0.0,2.0,97,0.00,,,0.00,Wunderground v.1.15,2013-05-25 10:31:00,
2013-05-25 06:36:00,46.9,46.1,30.30,NE,49,1.0,2.0,97,0.00,,,0.00,Wunderground v.1.15,2013-05-25 10:36:00,
2013-05-25 06:41:00,47.3,46.5,30.30,NE,49,0.0,2.0,97,0.00,,,0.00,Wunderground v.1.15,2013-05-25 10:41:00,
2013-05-25 06:46:00,46.9,45.8,30.30,West,267,0.0,2.0,96,0.00,,,0.00,Wunderground v.1.15,2013-05-25 10:46:00,
2013-05-25 06:51:00,46.7,45.6,30.30,NNE,30,0.0,0.0,96,0.00,,,0.00,Wunderground v.1.15,2013-05-25 10:51:00,
2013-05-25 06:56:00,47.3,46.5,30.30,ENE,57,1.0,1.0,97,0.00,,,0.00,Wunderground v.1.15,2013-05-25 10:56:00,
2013-05-25 07:01:00,48.0,47.5,30.30,East,94,2.0,2.0,98,0.00,,,0.00,Wunderground v.1.15,2013-05-25 11:01:00,
2013-05-25 07:06:00,48.4,47.6,30.30,ENE,75,0.0,2.0,97,0.00,,,0.00,Wunderground v.1.15,2013-05-25 11:06:00,
2013-05-25 07:11:00,48.3,47.2,30.31,NNE,25,0.0,1.0,96,0.00,,,0.00,Wunderground v.1.15,2013-05-25 11:11:00,
2013-05-25 07:16:00,47.8,46.7,30.31,NNE,25,0.0,1.0,96,0.00,,,0.00,Wunderground v.1.15,2013-05-25 11:16:00,
2013-05-25 07:21:00,47.5,46.4,30.31,NNE,25,0.0,0.0,96,0.00,,,0.00,Wunderground v.1.15,2013-05-25 11:21:00,
2013-05-25 07:26:00,47.6,46.5,30.31,East,101,0.0,1.0,96,0.00,,,0.00,Wunderground v.1.15,2013-05-25 11:26:00,
2013-05-25 07:31:00,48.3,47.5,30.31,East,85,2.0,2.0,97,0.00,,,0.00,Wunderground v.1.15,2013-05-25 11:31:00,
2013-05-25 07:36:00,48.8,48.0,30.31,ESE,110,2.0,3.0,97,0.00,,,0.00,Wunderground v.1.15,2013-05-25 11:36:00,
2013-05-25 07:41:00,49.0,48.2,30.31,ENE,75,1.0,2.0,97,0.00,,,0.00,Wunderground v.1.15,2013-05-25 11:41:00,
2013-05-25 07:46:00,49.2,48.1,30.31,ENE,68,1.0,2.0,96,0.00,,,0.00,Wunderground v.1.15,2013-05-25 11:46:00,
2013-05-25 07:51:00,49.7,48.6,30.31,ENE,72,1.0,4.0,96,0.00,,,0.00,Wunderground v.1.15,2013-05-25 11:51:00,
2013-05-25 07:56:00,50.1,48.4,30.31,ESE,109,0.0,4.0,94,0.00,,,0.00,Wunderground v.1.15,2013-05-25 11:56:00,
2013-05-25 08:01:00,50.4,48.5,30.31,East,92,2.0,3.0,93,0.00,,,0.00,Wunderground v.1.15,2013-05-25 12:01:00,
2013-05-25 08:06:00,50.7,48.5,30.31,East,85,0.0,3.0,92,0.00,,,0.00,Wunderground v.1.15,2013-05-25 12:06:00,
2013-05-25 08:11:00,51.3,49.1,30.31,East,85,0.0,1.0,92,0.00,,,0.00,Wunderground v.1.15,2013-05-25 12:11:00,
2013-05-25 08:16:00,51.7,48.6,30.31,ENE,73,2.0,3.0,89,0.00,,,0.00,Wunderground v.1.15,2013-05-25 12:16:00,
2013-05-25 08:21:00,52.1,48.3,30.31,ENE,65,2.0,5.0,87,0.00,,,0.00,Wunderground v.1.15,2013-05-25 12:21:00,
2013-05-25 08:26:00,52.5,48.1,30.31,ENE,65,1.0,5.0,85,0.00,,,0.00,Wunderground v.1.15,2013-05-25 12:26:00,
2013-05-25 08:31:00,53.1,48.4,30.31,East,89,1.0,3.0,84,0.00,,,0.00,Wunderground v.1.15,2013-05-25 12:31:00,
2013-05-25 08:36:00,53.6,48.6,30.31,ESE,104,1.0,4.0,83,0.00,,,0.00,Wunderground v.1.15,2013-05-25 12:36:00,
2013-05-25 08:41:00,54.1,48.7,30.31,East,86,0.0,3.0,82,0.00,,,0.00,Wunderground v.1.15,2013-05-25 12:41:00,
2013-05-25 08:46:00,54.7,49.0,30.31,ENE,74,3.0,4.0,81,0.00,,,0.00,Wunderground v.1.15,2013-05-25 12:46:00,
2013-05-25 08:51:00,55.3,49.2,30.31,East,79,1.0,3.0,80,0.00,,,0.00,Wunderground v.1.15,2013-05-25 12:51:00,
2013-05-25 08:56:00,55.9,49.5,30.31,East,82,1.0,3.0,79,0.00,,,0.00,Wunderground v.1.15,2013-05-25 12:56:00,
2013-05-25 09:01:00,56.4,50.0,30.31,ENE,72,0.0,3.0,79,0.00,,,0.00,Wunderground v.1.15,2013-05-25 13:01:00,
2013-05-25 09:06:00,57.1,50.3,30.31,ENE,68,0.0,3.0,78,0.00,,,0.00,Wunderground v.1.15,2013-05-25 13:06:00,
2013-05-25 09:11:00,57.9,51.1,30.31,ESE,105,0.0,1.0,78,0.00,,,0.00,Wunderground v.1.15,2013-05-25 13:11:00,
2013-05-25 09:16:00,58.7,50.4,30.31,East,86,0.0,4.0,74,0.00,,,0.00,Wunderground v.1.15,2013-05-25 13:16:00,
2013-05-25 09:21:00,59.2,49.4,30.32,East,88,1.0,7.0,70,0.00,,,0.00,Wunderground v.1.15,2013-05-25 13:21:00,
2013-05-25 09:26:00,59.7,48.7,30.32,SE,125,3.0,7.0,67,0.00,,,0.00,Wunderground v.1.15,2013-05-25 13:26:00,
2013-05-25 09:31:00,60.1,48.7,30.32,ESE,119,0.0,3.0,66,0.00,,,0.00,Wunderground v.1.15,2013-05-25 13:31:00,
2013-05-25 09:36:00,60.4,48.6,30.32,NE,50,1.0,4.0,65,0.00,,,0.00,Wunderground v.1.15,2013-05-25 13:36:00,
2013-05-25 09:41:00,60.7,47.6,30.32,ESE,113,2.0,9.0,62,0.00,,,0.00,Wunderground v.1.15,2013-05-25 13:41:00,
2013-05-25 09:46:00,61.0,48.3,30.32,ESE,121,2.0,9.0,63,0.00,,,0.00,Wunderground v.1.15,2013-05-25 13:46:00,
2013-05-25 09:51:00,61.5,48.8,30.32,SE,126,1.0,5.0,63,0.00,,,0.00,Wunderground v.1.15,2013-05-25 13:51:00,
2013-05-25 09:56:00,62.3,50.4,30.31,ESE,113,0.0,5.0,65,0.00,,,0.00,Wunderground v.1.15,2013-05-25 13:56:00,
2013-05-25 10:01:00,63.1,49.0,30.31,SE,124,2.0,3.0,60,0.00,,,0.00,Wunderground v.1.15,2013-05-25 14:01:00,
2013-05-25 10:06:00,63.4,48.4,30.31,SE,135,3.0,5.0,58,0.00,,,0.00,Wunderground v.1.15,2013-05-25 14:06:00,
2013-05-25 10:11:00,63.6,48.5,30.31,ESE,110,1.0,5.0,58,0.00,,,0.00,Wunderground v.1.15,2013-05-25 14:11:00,
2013-05-25 10:16:00,63.8,48.7,30.31,SE,124,4.0,5.0,58,0.00,,,0.00,Wunderground v.1.15,2013-05-25 14:16:00,
2013-05-25 10:21:00,63.9,47.4,30.31,NE,53,2.0,6.0,55,0.00,,,0.00,Wunderground v.1.15,2013-05-25 14:21:00,
2013-05-25 10:26:00,64.3,47.8,30.31,SE,134,2.0,6.0,55,0.00,,,0.00,Wunderground v.1.15,2013-05-25 14:26:00,
2013-05-25 10:31:00,64.7,48.2,30.31,East,98,2.0,5.0,55,0.00,,,0.00,Wunderground v.1.15,2013-05-25 14:31:00,
2013-05-25 10:36:00,64.8,49.7,30.31,ESE,112,1.0,5.0,58,0.00,,,0.00,Wunderground v.1.15,2013-05-25 14:36:00,
2013-05-25 10:41:00,65.0,48.9,30.31,West,274,0.0,5.0,56,0.00,,,0.00,Wunderground v.1.15,2013-05-25 14:41:00,
2013-05-25 10:46:00,65.5,48.9,30.31,SE,124,2.0,5.0,55,0.00,,,0.00,Wunderground v.1.15,2013-05-25 14:46:00,
2013-05-25 10:51:00,65.9,48.8,30.31,ENE,60,3.0,4.0,54,0.00,,,0.00,Wunderground v.1.15,2013-05-25 14:51:00,
2013-05-25 10:56:00,65.7,47.6,30.31,ENE,60,1.0,5.0,52,0.00,,,0.00,Wunderground v.1.15,2013-05-25 14:56:00,
2013-05-25 11:01:00,65.8,46.6,30.31,SE,143,1.0,4.0,50,0.00,,,0.00,Wunderground v.1.15,2013-05-25 15:01:00,
2013-05-25 11:06:00,66.0,47.3,30.32,East,81,1.0,8.0,51,0.00,,,0.00,Wunderground v.1.15,2013-05-25 15:06:00,
2013-05-25 11:11:00,66.6,47.9,30.32,East,99,1.0,3.0,51,0.00,,,0.00,Wunderground v.1.15,2013-05-25 15:11:00,
2013-05-25 11:16:00,67.3,46.4,30.31,SE,128,4.0,5.0,47,0.00,,,0.00,Wunderground v.1.15,2013-05-25 15:16:00,
2013-05-25 11:21:00,66.8,45.3,30.31,ENE,60,1.0,5.0,46,0.00,,,0.00,Wunderground v.1.15,2013-05-25 15:21:00,
2013-05-25 11:26:00,66.4,44.4,30.31,NE,38,1.0,6.0,45,0.00,,,0.00,Wunderground v.1.15,2013-05-25 15:26:00,
2013-05-25 11:31:00,66.3,46.0,30.31,ENE,65,1.0,6.0,48,0.00,,,0.00,Wunderground v.1.15,2013-05-25 15:31:00,
2013-05-25 11:36:00,66.3,46.0,30.31,WSW,257,0.0,6.0,48,0.00,,,0.00,Wunderground v.1.15,2013-05-25 15:36:00,
2013-05-25 11:41:00,66.3,45.5,30.32,ENE,60,4.0,5.0,47,0.00,,,0.00,Wunderground v.1.15,2013-05-25 15:41:00,
2013-05-25 11:46:00,66.6,47.9,30.31,NNW,333,2.0,5.0,51,0.00,,,0.00,Wunderground v.1.15,2013-05-25 15:46:00,
2013-05-25 11:51:00,66.9,46.6,30.31,WNW,301,1.0,3.0,48,0.00,,,0.00,Wunderground v.1.15,2013-05-25 15:51:00,
2013-05-25 11:56:00,67.7,48.9,30.31,West,277,1.0,3.0,51,0.00,,,0.00,Wunderground v.1.15,2013-05-25 15:56:00,
2013-05-25 12:01:00,68.8,51.5,30.30,SE,128,1.0,3.0,54,0.00,,,0.00,Wunderground v.1.15,2013-05-25 16:01:00,
2013-05-25 12:06:00,69.2,48.7,30.30,ENE,76,5.0,5.0,48,0.00,,,0.00,Wunderground v.1.15,2013-05-25 16:06:00,
2013-05-25 12:11:00,69.2,49.2,30.30,NE,47,3.0,3.0,49,0.00,,,0.00,Wunderground v.1.15,2013-05-25 16:11:00,
2013-05-25 12:16:00,69.2,48.1,30.29,NE,44,4.0,5.0,47,0.00,,,0.00,Wunderground v.1.15,2013-05-25 16:16:00,
2013-05-25 12:21:00,69.1,47.4,30.29,NE,56,4.0,4.0,46,0.00,,,0.00,Wunderground v.1.15,2013-05-25 16:21:00,
2013-05-25 12:26:00,68.8,47.2,30.29,NNE,16,2.0,6.0,46,0.00,,,0.00,Wunderground v.1.15,2013-05-25 16:26:00,
2013-05-25 12:31:00,68.8,46.6,30.29,NE,37,5.0,8.0,45,0.00,,,0.00,Wunderground v.1.15,2013-05-25 16:31:00,
2013-05-25 12:36:00,68.6,46.4,30.28,NE,47,3.0,8.0,45,0.00,,,0.00,Wunderground v.1.15,2013-05-25 16:36:00,
2013-05-25 12:41:00,68.4,46.8,30.28,NNE,27,5.0,7.0,46,0.00,,,0.00,Wunderground v.1.15,2013-05-25 16:41:00,
2013-05-25 12:46:00,68.7,47.1,30.28,NE,53,5.0,7.0,46,0.00,,,0.00,Wunderground v.1.15,2013-05-25 16:46:00,
2013-05-25 12:51:00,69.2,48.1,30.28,NE,54,2.0,5.0,47,0.00,,,0.00,Wunderground v.1.15,2013-05-25 16:51:00,
2013-05-25 12:56:00,69.4,47.7,30.27,NW,323,3.0,6.0,46,0.00,,,0.00,Wunderground v.1.15,2013-05-25 16:56:00,
2013-05-25 13:01:00,69.6,44.8,30.27,NNW,329,1.0,8.0,41,0.00,,,0.00,Wunderground v.1.15,2013-05-25 17:01:00,
2013-05-25 13:06:00,69.7,46.8,30.27,NNW,347,5.0,8.0,44,0.00,,,0.00,Wunderground v.1.15,2013-05-25 17:06:00,
2013-05-25 13:11:00,69.9,49.3,30.28,North,9,4.0,9.0,48,0.00,,,0.00,Wunderground v.1.15,2013-05-25 17:11:00,
2013-05-25 13:16:00,69.9,45.1,30.28,NNE,20,5.0,9.0,41,0.00,,,0.00,Wunderground v.1.15,2013-05-25 17:16:00,
2013-05-25 13:21:00,69.9,47.6,30.27,NNE,19,1.0,5.0,45,0.00,,,0.00,Wunderground v.1.15,2013-05-25 17:21:00,
2013-05-25 13:26:00,70.4,45.6,30.27,ENE,78,3.0,6.0,41,0.00,,,0.00,Wunderground v.1.15,2013-05-25 17:26:00,
2013-05-25 13:31:00,70.4,45.6,30.27,ESE,115,1.0,5.0,41,0.00,,,0.00,Wunderground v.1.15,2013-05-25 17:31:00,
2013-05-25 13:36:00,71.4,46.5,30.27,ENE,64,1.0,5.0,41,0.00,,,0.00,Wunderground v.1.15,2013-05-25 17:36:00,
2013-05-25 13:41:00,71.9,48.2,30.26,NNW,338,0.0,5.0,43,0.00,,,0.00,Wunderground v.1.15,2013-05-25 17:41:00,
2013-05-25 13:46:00,72.1,46.4,30.26,West,264,1.0,5.0,40,0.00,,,0.00,Wunderground v.1.15,2013-05-25 17:46:00,
2013-05-25 13:51:00,72.3,46.6,30.26,NE,56,1.0,8.0,40,0.00,,,0.00,Wunderground v.1.15,2013-05-25 17:51:00,
2013-05-25 13:56:00,72.4,44.6,30.26,East,83,0.0,8.0,37,0.00,,,0.00,Wunderground v.1.15,2013-05-25 17:56:00,
2013-05-25 14:01:00,72.3,45.3,30.26,NW,314,1.0,8.0,38,0.00,,,0.00,Wunderground v.1.15,2013-05-25 18:01:00,
2013-05-25 14:06:00,72.6,49.4,30.25,ESE,108,3.0,8.0,44,0.00,,,0.00,Wunderground v.1.15,2013-05-25 18:06:00,
2013-05-25 14:11:00,73.3,46.8,30.25,SSW,200,1.0,6.0,39,0.00,,,0.00,Wunderground v.1.15,2013-05-25 18:11:00,
2013-05-25 14:16:00,73.6,47.1,30.25,ESE,108,0.0,6.0,39,0.00,,,0.00,Wunderground v.1.15,2013-05-25 18:16:00,
2013-05-25 14:21:00,73.9,46.0,30.25,ESE,118,0.0,4.0,37,0.00,,,0.00,Wunderground v.1.15,2013-05-25 18:21:00,
2013-05-25 14:26:00,73.8,46.6,30.25,ENE,57,1.0,6.0,38,0.00,,,0.00,Wunderground v.1.15,2013-05-25 18:26:00,
2013-05-25 14:31:00,72.9,45.8,30.25,ENE,73,2.0,8.0,38,0.00,,,0.00,Wunderground v.1.15,2013-05-25 18:31:00,
2013-05-25 14:36:00,73.0,46.6,30.25,SE,136,0.0,8.0,39,0.00,,,0.00,Wunderground v.1.15,2013-05-25 18:36:00,
2013-05-25 14:41:00,73.6,45.7,30.24,ENE,76,2.0,8.0,37,0.00,,,0.00,Wunderground v.1.15,2013-05-25 18:41:00,
2013-05-25 14:46:00,73.5,46.3,30.24,NE,50,6.0,8.0,38,0.00,,,0.00,Wunderground v.1.15,2013-05-25 18:46:00,
2013-05-25 14:51:00,73.2,45.4,30.24,WNW,283,2.0,7.0,37,0.00,,,0.00,Wunderground v.1.15,2013-05-25 18:51:00,
2013-05-25 14:56:00,73.7,45.8,30.24,ENE,58,0.0,7.0,37,0.00,,,0.00,Wunderground v.1.15,2013-05-25 18:56:00,
2013-05-25 15:01:00,74.1,46.9,30.24,NE,49,2.0,6.0,38,0.00,,,0.00,Wunderground v.1.15,2013-05-25 19:01:00,
2013-05-25 15:06:00,74.4,42.6,30.24,East,82,0.0,6.0,32,0.00,,,0.00,Wunderground v.1.15,2013-05-25 19:06:00,
2013-05-25 15:11:00,75.5,48.1,30.24,WSW,255,0.0,2.0,38,0.00,,,0.00,Wunderground v.1.15,2013-05-25 19:11:00,
2013-05-25 15:16:00,75.5,45.9,30.24,ESE,102,4.0,8.0,35,0.00,,,0.00,Wunderground v.1.15,2013-05-25 19:16:00,
2013-05-25 15:21:00,75.3,47.2,30.24,ENE,67,1.0,3.0,37,0.00,,,0.00,Wunderground v.1.15,2013-05-25 19:21:00,
2013-05-25 15:26:00,75.7,45.3,30.24,ENE,76,4.0,7.0,34,0.00,,,0.00,Wunderground v.1.15,2013-05-25 19:26:00,
2013-05-25 15:31:00,75.4,45.1,30.24,North,8,7.0,7.0,34,0.00,,,0.00,Wunderground v.1.15,2013-05-25 19:31:00,
2013-05-25 15:36:00,75.1,48.4,30.24,North,1,8.0,8.0,39,0.00,,,0.00,Wunderground v.1.15,2013-05-25 19:36:00,
2013-05-25 15:41:00,74.9,45.4,30.24,North,11,2.0,7.0,35,0.00,,,0.00,Wunderground v.1.15,2013-05-25 19:41:00,
2013-05-25 15:46:00,75.3,48.6,30.24,NW,304,3.0,7.0,39,0.00,,,0.00,Wunderground v.1.15,2013-05-25 19:46:00,
2013-05-25 15:51:00,75.2,50.5,30.24,SSW,210,2.0,5.0,42,0.00,,,0.00,Wunderground v.1.15,2013-05-25 19:51:00,
2013-05-25 15:56:00,75.2,47.8,30.24,East,84,2.0,9.0,38,0.00,,,0.00,Wunderground v.1.15,2013-05-25 19:56:00,
2013-05-25 16:01:00,75.1,48.4,30.24,NE,49,2.0,7.0,39,0.00,,,0.00,Wunderground v.1.15,2013-05-25 20:01:00,
2013-05-25 16:06:00,75.2,48.5,30.24,NE,37,4.0,7.0,39,0.00,,,0.00,Wunderground v.1.15,2013-05-25 20:06:00,
2013-05-25 16:11:00,75.1,49.8,30.23,ENE,72,0.0,6.0,41,0.00,,,0.00,Wunderground v.1.15,2013-05-25 20:11:00,
2013-05-25 16:16:00,75.7,46.8,30.23,NNE,25,7.0,9.0,36,0.00,,,0.00,Wunderground v.1.15,2013-05-25 20:16:00,
2013-05-25 16:21:00,75.4,49.4,30.23,East,83,3.0,8.0,40,0.00,,,0.00,Wunderground v.1.15,2013-05-25 20:21:00,
2013-05-25 16:26:00,75.5,50.1,30.23,ENE,65,4.0,8.0,41,0.00,,,0.00,Wunderground v.1.15,2013-05-25 20:26:00,
2013-05-25 16:31:00,75.9,48.5,30.23,ENE,65,3.0,8.0,38,0.00,,,0.00,Wunderground v.1.15,2013-05-25 20:31:00,
2013-05-25 16:36:00,76.1,49.3,30.23,ENE,76,5.0,8.0,39,0.00,,,0.00,Wunderground v.1.15,2013-05-25 20:36:00,
2013-05-25 16:41:00,76.1,47.2,30.22,ENE,65,0.0,7.0,36,0.00,,,0.00,Wunderground v.1.15,2013-05-25 20:41:00,
2013-05-25 16:46:00,76.2,48.7,30.22,NE,56,1.0,7.0,38,0.00,,,0.00,Wunderground v.1.15,2013-05-25 20:46:00,
2013-05-25 16:51:00,76.2,47.3,30.22,NE,47,3.0,10.0,36,0.00,,,0.00,Wunderground v.1.15,2013-05-25 20:51:00,
2013-05-25 16:56:00,76.0,47.1,30.21,North,354,3.0,10.0,36,0.00,,,0.00,Wunderground v.1.15,2013-05-25 20:56:00,
2013-05-25 17:01:00,76.1,45.7,30.21,East,79,2.0,9.0,34,0.00,,,0.00,Wunderground v.1.15,2013-05-25 21:01:00,
2013-05-25 17:06:00,76.2,46.5,30.21,NE,56,3.0,9.0,35,0.00,,,0.00,Wunderground v.1.15,2013-05-25 21:06:00,
2013-05-25 17:11:00,76.5,50.4,30.21,East,91,0.0,7.0,40,0.00,,,0.00,Wunderground v.1.15,2013-05-25 21:11:00,
2013-05-25 17:16:00,76.8,48.6,30.21,NNE,29,2.0,7.0,37,0.00,,,0.00,Wunderground v.1.15,2013-05-25 21:16:00,
2013-05-25 17:21:00,76.6,46.9,30.21,NNE,20,2.0,9.0,35,0.00,,,0.00,Wunderground v.1.15,2013-05-25 21:21:00,
2013-05-25 17:26:00,77.2,48.9,30.20,ESE,122,1.0,9.0,37,0.00,,,0.00,Wunderground v.1.15,2013-05-25 21:26:00,
2013-05-25 17:31:00,78.2,48.3,30.20,ENE,62,1.0,5.0,35,0.00,,,0.00,Wunderground v.1.15,2013-05-25 21:31:00,
2013-05-25 17:36:00,78.0,48.1,30.20,ENE,63,1.0,5.0,35,0.00,,,0.00,Wunderground v.1.15,2013-05-25 21:36:00,
2013-05-25 17:41:00,78.1,49.0,30.20,NE,50,2.0,3.0,36,0.00,,,0.00,Wunderground v.1.15,2013-05-25 21:41:00,
2013-05-25 17:46:00,78.0,46.6,30.20,ENE,61,1.0,4.0,33,0.00,,,0.00,Wunderground v.1.15,2013-05-25 21:46:00,
2013-05-25 17:51:00,78.1,49.0,30.20,South,181,1.0,3.0,36,0.00,,,0.00,Wunderground v.1.15,2013-05-25 21:51:00,
2013-05-25 17:56:00,78.3,47.6,30.19,WSW,248,0.0,3.0,34,0.00,,,0.00,Wunderground v.1.15,2013-05-25 21:56:00,
2013-05-25 18:01:00,78.6,47.1,30.19,ENE,62,2.0,5.0,33,0.00,,,0.00,Wunderground v.1.15,2013-05-25 22:01:00,
2013-05-25 18:06:00,78.5,47.8,30.19,ENE,60,1.0,5.0,34,0.00,,,0.00,Wunderground v.1.15,2013-05-25 22:06:00,
2013-05-25 18:11:00,78.5,46.2,30.19,ENE,68,2.0,4.0,32,0.00,,,0.00,Wunderground v.1.15,2013-05-25 22:11:00,
2013-05-25 18:16:00,78.1,47.4,30.19,ESE,108,2.0,4.0,34,0.00,,,0.00,Wunderground v.1.15,2013-05-25 22:16:00,
2013-05-25 18:21:00,78.4,46.9,30.19,SE,124,1.0,2.0,33,0.00,,,0.00,Wunderground v.1.15,2013-05-25 22:21:00,
2013-05-25 18:26:00,78.5,47.0,30.19,ENE,78,1.0,5.0,33,0.00,,,0.00,Wunderground v.1.15,2013-05-25 22:26:00,
2013-05-25 18:31:00,78.1,47.4,30.19,ENE,62,3.0,5.0,34,0.00,,,0.00,Wunderground v.1.15,2013-05-25 22:31:00,
2013-05-25 18:36:00,77.6,47.0,30.19,NE,49,1.0,2.0,34,0.00,,,0.00,Wunderground v.1.15,2013-05-25 22:36:00,
2013-05-25 18:41:00,77.3,48.3,30.19,East,86,2.0,3.0,36,0.00,,,0.00,Wunderground v.1.15,2013-05-25 22:41:00,
2013-05-25 18:46:00,77.2,46.7,30.20,NE,44,2.0,6.0,34,0.00,,,0.00,Wunderground v.1.15,2013-05-25 22:46:00,
2013-05-25 18:51:00,76.7,46.2,30.20,ENE,69,3.0,5.0,34,0.00,,,0.00,Wunderground v.1.15,2013-05-25 22:51:00,
2013-05-25 18:56:00,76.6,47.6,30.20,ENE,73,1.0,5.0,36,0.00,,,0.00,Wunderground v.1.15,2013-05-25 22:56:00,
2013-05-25 19:01:00,76.7,46.2,30.20,NE,56,3.0,5.0,34,0.00,,,0.00,Wunderground v.1.15,2013-05-25 23:01:00,
2013-05-25 19:06:00,76.5,46.8,30.20,ENE,57,1.0,3.0,35,0.00,,,0.00,Wunderground v.1.15,2013-05-25 23:06:00,
2013-05-25 19:11:00,76.5,47.6,30.20,ENE,78,2.0,5.0,36,0.00,,,0.00,Wunderground v.1.15,2013-05-25 23:11:00,
2013-05-25 19:16:00,76.4,48.2,30.20,East,86,1.0,6.0,37,0.00,,,0.00,Wunderground v.1.15,2013-05-25 23:16:00,
2013-05-25 19:21:00,76.5,47.6,30.20,NE,47,3.0,4.0,36,0.00,,,0.00,Wunderground v.1.15,2013-05-25 23:21:00,
2013-05-25 19:26:00,76.4,48.2,30.19,SE,131,2.0,4.0,37,0.00,,,0.00,Wunderground v.1.15,2013-05-25 23:26:00,
2013-05-25 19:31:00,76.3,47.4,30.19,ENE,68,2.0,5.0,36,0.00,,,0.00,Wunderground v.1.15,2013-05-25 23:31:00,
2013-05-25 19:36:00,76.3,49.5,30.19,ESE,102,0.0,5.0,39,0.00,,,0.00,Wunderground v.1.15,2013-05-25 23:36:00,
2013-05-25 19:41:00,76.3,48.1,30.19,ENE,60,1.0,2.0,37,0.00,,,0.00,Wunderground v.1.15,2013-05-25 23:41:00,
2013-05-25 19:46:00,76.2,49.4,30.19,ESE,105,0.0,2.0,39,0.00,,,0.00,Wunderground v.1.15,2013-05-25 23:46:00,
2013-05-25 19:51:00,76.3,52.8,30.19,ENE,59,0.0,1.0,44,0.00,,,0.00,Wunderground v.1.15,2013-05-25 23:51:00,
2013-05-25 19:56:00,75.9,54.8,30.18,ENE,58,0.0,1.0,48,0.00,,,0.00,Wunderground v.1.15,2013-05-25 23:56:00,
2013-05-25 20:01:00,75.0,54.5,30.18,ENE,58,0.0,0.0,49,0.00,,,0.00,Wunderground v.1.15,2013-05-26 00:01:00,
2013-05-25 20:06:00,74.0,55.3,30.18,North,5,2.0,2.0,52,0.00,,,0.00,Wunderground v.1.15,2013-05-26 00:06:00,
2013-05-25 20:11:00,72.3,55.7,30.18,North,1,0.0,2.0,56,0.00,,,0.00,Wunderground v.1.15,2013-05-26 00:11:00,
2013-05-25 20:16:00,71.1,56.0,30.18,North,1,0.0,2.0,59,0.00,,,0.00,Wunderground v.1.15,2013-05-26 00:16:00,
2013-05-25 20:21:00,69.9,55.4,30.19,North,357,1.0,2.0,60,0.00,,,0.00,Wunderground v.1.15,2013-05-26 00:21:00,
2013-05-25 20:26:00,68.6,56.4,30.19,NNW,343,0.0,2.0,65,0.00,,,0.00,Wunderground v.1.15,2013-05-26 00:26:00,
2013-05-25 20:31:00,67.7,55.1,30.18,NNW,342,0.0,1.0,64,0.00,,,0.00,Wunderground v.1.15,2013-05-26 00:31:00,
2013-05-25 20:36:00,67.1,54.5,30.19,NNW,342,0.0,1.0,64,0.00,,,0.00,Wunderground v.1.15,2013-05-26 00:36:00,
2013-05-25 20:41:00,66.7,55.8,30.18,NNW,343,0.0,0.0,68,0.00,,,0.00,Wunderground v.1.15,2013-05-26 00:41:00,
2013-05-25 20:46:00,66.0,55.5,30.18,NNW,342,0.0,0.0,69,0.00,,,0.00,Wunderground v.1.15,2013-05-26 00:46:00,
2013-05-25 20:51:00,65.5,56.6,30.18,NNW,342,0.0,0.0,73,0.00,,,0.00,Wunderground v.1.15,2013-05-26 00:51:00,
2013-05-25 20:56:00,64.7,57.0,30.18,NNW,342,0.0,0.0,76,0.00,,,0.00,Wunderground v.1.15,2013-05-26 00:56:00,
2013-05-25 21:01:00,64.0,56.3,30.17,NNW,342,0.0,1.0,76,0.00,,,0.00,Wunderground v.1.15,2013-05-26 01:01:00,
2013-05-25 21:06:00,63.4,55.7,30.17,NNW,343,0.0,1.0,76,0.00,,,0.00,Wunderground v.1.15,2013-05-26 01:06:00,
2013-05-25 21:11:00,63.0,55.7,30.17,NNW,343,0.0,0.0,77,0.00,,,0.00,Wunderground v.1.15,2013-05-26 01:11:00,
2013-05-25 21:16:00,62.9,55.9,30.17,NNW,342,0.0,1.0,78,0.00,,,0.00,Wunderground v.1.15,2013-05-26 01:16:00,
2013-05-25 21:21:00,62.5,55.2,30.17,NNW,347,0.0,1.0,77,0.00,,,0.00,Wunderground v.1.15,2013-05-26 01:21:00,
2013-05-25 21:26:00,62.0,54.3,30.17,NNW,347,0.0,1.0,76,0.00,,,0.00,Wunderground v.1.15,2013-05-26 01:26:00,
2013-05-25 21:31:00,61.6,55.0,30.17,NNW,347,0.0,1.0,79,0.00,,,0.00,Wunderground v.1.15,2013-05-26 01:31:00,
2013-05-25 21:36:00,61.1,55.2,30.16,NNW,347,0.0,1.0,81,0.00,,,0.00,Wunderground v.1.15,2013-05-26 01:36:00,
2013-05-25 21:41:00,60.7,54.8,30.16,NNW,347,0.0,0.0,81,0.00,,,0.00,Wunderground v.1.15,2013-05-26 01:41:00,
2013-05-25 21:46:00,60.2,54.3,30.16,NNW,347,0.0,0.0,81,0.00,,,0.00,Wunderground v.1.15,2013-05-26 01:46:00,
2013-05-25 21:51:00,60.0,54.8,30.16,NNW,347,0.0,0.0,83,0.00,,,0.00,Wunderground v.1.15,2013-05-26 01:51:00,
2013-05-25 21:56:00,59.6,54.4,30.16,NNW,347,0.0,0.0,83,0.00,,,0.00,Wunderground v.1.15,2013-05-26 01:56:00,
2013-05-25 22:01:00,59.1,54.3,30.15,NNW,347,0.0,0.0,84,0.00,,,0.00,Wunderground v.1.15,2013-05-26 02:01:00,
2013-05-25 22:06:00,59.0,54.8,30.15,NNW,347,0.0,0.0,86,0.00,,,0.00,Wunderground v.1.15,2013-05-26 02:06:00,
2013-05-25 22:11:00,58.9,54.7,30.15,NNW,347,0.0,0.0,86,0.00,,,0.00,Wunderground v.1.15,2013-05-26 02:11:00,
2013-05-25 22:16:00,58.6,54.4,30.15,NNW,341,1.0,1.0,86,0.00,,,0.00,Wunderground v.1.15,2013-05-26 02:16:00,
2013-05-25 22:21:00,58.3,54.4,30.14,WSW,253,2.0,2.0,87,0.00,,,0.00,Wunderground v.1.15,2013-05-26 02:21:00,
2013-05-25 22:26:00,57.7,54.2,30.14,WSW,242,1.0,1.0,88,0.00,,,0.00,Wunderground v.1.15,2013-05-26 02:26:00,
2013-05-25 22:31:00,57.5,54.3,30.15,WSW,237,0.0,2.0,89,0.00,,,0.00,Wunderground v.1.15,2013-05-26 02:31:00,
2013-05-25 22:36:00,57.4,54.2,30.15,SW,236,1.0,1.0,89,0.00,,,0.00,Wunderground v.1.15,2013-05-26 02:36:00,
2013-05-25 22:41:00,57.6,54.4,30.17,ENE,72,1.0,2.0,89,0.00,,,0.00,Wunderground v.1.15,2013-05-26 02:41:00,
2013-05-25 22:46:00,57.9,54.7,30.17,ESE,103,0.0,0.0,89,0.00,,,0.00,Wunderground v.1.15,2013-05-26 02:46:00,
2013-05-25 22:51:00,58.3,54.8,30.17,ESE,103,0.0,1.0,88,0.00,,,0.00,Wunderground v.1.15,2013-05-26 02:51:00,
2013-05-25 22:56:00,58.7,55.5,30.18,NE,40,1.0,2.0,89,0.00,,,0.00,Wunderground v.1.15,2013-05-26 02:56:00,
2013-05-25 23:01:00,58.8,55.3,30.18,NNE,32,0.0,2.0,88,0.00,,,0.00,Wunderground v.1.15,2013-05-26 03:01:00,
2013-05-25 23:06:00,58.5,55.0,30.18,West,269,1.0,1.0,88,0.00,,,0.00,Wunderground v.1.15,2013-05-26 03:06:00,
2013-05-25 23:11:00,57.7,54.2,30.18,West,269,1.0,1.0,88,0.00,,,0.00,Wunderground v.1.15,2013-05-26 03:11:00,
2013-05-25 23:16:00,57.2,54.0,30.18,SW,233,0.0,1.0,89,0.00,,,0.00,Wunderground v.1.15,2013-05-26 03:16:00,
2013-05-25 23:21:00,56.8,53.9,30.18,SW,233,0.0,1.0,90,0.00,,,0.00,Wunderground v.1.15,2013-05-26 03:21:00,
2013-05-25 23:26:00,56.6,53.7,30.18,West,264,0.0,1.0,90,0.00,,,0.00,Wunderground v.1.15,2013-05-26 03:26:00,
2013-05-25 23:31:00,56.3,53.4,30.18,West,262,0.0,1.0,90,0.00,,,0.00,Wunderground v.1.15,2013-05-26 03:31:00,
2013-05-25 23:36:00,56.0,53.1,30.17,West,261,0.0,0.0,90,0.00,,,0.00,Wunderground v.1.15,2013-05-26 03:36:00,
2013-05-25 23:41:00,55.8,53.2,30.17,West,261,1.0,1.0,91,0.00,,,0.00,Wunderground v.1.15,2013-05-26 03:41:00,
2013-05-25 23:46:00,55.4,52.8,30.17,West,263,0.0,0.0,91,0.00,,,0.00,Wunderground v.1.15,2013-05-26 03:46:00,
2013-05-25 23:51:00,55.2,52.6,30.17,West,263,0.0,1.0,91,0.00,,,0.00,Wunderground v.1.15,2013-05-26 03:51:00,
2013-05-25 23:56:00,55.2,52.9,30.17,West,263,0.0,0.0,92,0.00,,,0.00,Wunderground v.1.15,2013-05-26 03:56:00,